Time;durP1;ratioP1;P1;durP2;ratioP2;P2;SDS_P1;SDS_P2;PMS_P1;PMS_P2;Temp;Humidity;BMP_temperature;BMP_pressure;BME280_temperature;BME280_humidity;BME280_pressure;Samples;Min_cycle;Max_cycle;Signal;HPM_P1;HPM_P2
2023/06/19 00:01:38;;;;;;;7.68;2.90;;;20.30;99.90;;;;;;4264533;27;20043;-55
2023/06/19 00:03:41;;;;;;;4.97;3.10;;;20.30;99.90;;;;;;4259413;27;20064;-54
2023/06/19 00:05:43;;;;;;;6.65;3.17;;;20.30;99.90;;;;;;4256004;27;20204;-55
2023/06/19 00:07:45;;;;;;;4.53;3.17;;;20.20;99.90;;;;;;4264900;27;20054;-55
2023/06/19 00:09:47;;;;;;;4.68;2.88;;;20.20;99.90;;;;;;4252352;27;20582;-57
2023/06/19 00:11:51;;;;;;;4.82;2.80;;;20.20;99.90;;;;;;4264046;27;20074;-55
2023/06/19 00:13:53;;;;;;;3.25;2.67;;;20.20;99.90;;;;;;4260540;27;20117;-55
2023/06/19 00:16:00;;;;;;;5.13;2.95;;;20.20;99.90;;;;;;4254188;27;20053;-55
2023/06/19 00:18:02;;;;;;;4.35;3.50;;;20.20;99.90;;;;;;4264716;27;20519;-56
2023/06/19 00:20:05;;;;;;;5.95;3.28;;;20.10;99.90;;;;;;4252643;27;20044;-55
2023/06/19 00:22:07;;;;;;;8.40;3.00;;;20.20;99.90;;;;;;4263521;27;20074;-55
2023/06/19 00:24:10;;;;;;;5.13;3.70;;;20.20;99.90;;;;;;4261149;27;20062;-56
2023/06/19 00:26:14;;;;;;;6.60;3.10;;;20.20;99.90;;;;;;4254298;27;20074;-58
2023/06/19 00:28:19;;;;;;;7.22;3.90;;;20.20;99.90;;;;;;4247351;27;20080;-55
2023/06/19 00:30:22;;;;;;;5.55;3.55;;;20.20;99.90;;;;;;4258037;27;20395;-54
2023/06/19 00:32:24;;;;;;;4.28;3.03;;;20.20;99.90;;;;;;4249182;27;20092;-55
2023/06/19 00:34:29;;;;;;;9.55;3.38;;;20.20;99.90;;;;;;4247573;27;20043;-54
2023/06/19 00:36:31;;;;;;;;;;;20.20;99.90;;;;;;4246665;27;20276;-54
2023/06/19 00:38:33;;;;;;;7.95;3.25;;;20.10;99.90;;;;;;4245854;28;19925;-55
2023/06/19 00:40:35;;;;;;;5.03;3.33;;;20.10;99.90;;;;;;4259888;27;20078;-55
2023/06/19 00:42:37;;;;;;;11.40;4.30;;;20.10;99.90;;;;;;4249348;27;20055;-55
2023/06/19 00:44:41;;;;;;;8.18;3.50;;;20.10;99.90;;;;;;4246901;27;20053;-55
2023/06/19 00:46:43;;;;;;;6.45;3.60;;;20.10;99.90;;;;;;4258500;27;20134;-55
2023/06/19 00:48:45;;;;;;;13.52;3.70;;;20.00;99.90;;;;;;4247309;28;20057;-54
2023/06/19 00:50:49;;;;;;;6.15;3.92;;;20.10;99.90;;;;;;4255759;27;20436;-55
2023/06/19 00:52:51;;;;;;;7.60;3.90;;;20.10;99.90;;;;;;4249791;27;20054;-55
2023/06/19 00:54:54;;;;;;;11.38;3.65;;;20.00;99.90;;;;;;4248555;27;20650;-54
2023/06/19 00:56:56;;;;;;;8.25;3.95;;;20.00;99.90;;;;;;4258490;27;20422;-55
2023/06/19 00:58:59;;;;;;;5.10;3.95;;;20.00;99.90;;;;;;4248740;27;20047;-55
2023/06/19 01:01:02;;;;;;;7.40;4.10;;;19.90;99.90;;;;;;4258140;27;20039;-55
2023/06/19 01:03:10;;;;;;;6.72;3.90;;;19.90;99.90;;;;;;4253321;27;20465;-53
2023/06/19 01:05:13;;;;;;;7.55;3.85;;;19.90;99.90;;;;;;4251607;27;20046;-54
2023/06/19 01:07:21;;;;;;;9.77;4.20;;;19.90;99.90;;;;;;4261828;27;20055;-53
2023/06/19 01:09:29;;;;;;;9.48;4.43;;;19.90;99.90;;;;;;4250325;27;20047;-55
2023/06/19 01:11:37;;;;;;;8.40;3.45;;;19.90;99.90;;;;;;4259081;27;20043;-56
2023/06/19 01:13:45;;;;;;;7.28;4.40;;;19.90;99.90;;;;;;4251672;27;20043;-54
2023/06/19 01:15:47;;;;;;;7.82;4.15;;;19.90;99.90;;;;;;4251535;27;20035;-53
2023/06/19 01:17:51;;;;;;;8.07;4.38;;;19.90;99.90;;;;;;4255999;27;20129;-54
2023/06/19 01:19:54;;;;;;;8.65;4.68;;;19.90;99.90;;;;;;4267193;27;20046;-53
2023/06/19 01:21:56;;;;;;;7.78;4.35;;;19.90;99.90;;;;;;4244053;27;20051;-53
2023/06/19 01:23:59;;;;;;;10.65;4.93;;;20.00;99.90;;;;;;4266060;27;20103;-55
2023/06/19 01:26:01;;;;;;;8.80;5.55;;;19.90;99.90;;;;;;4265781;27;20506;-54
2023/06/19 01:28:05;;;;;;;7.97;4.63;;;19.90;99.90;;;;;;4250165;27;20039;-55
2023/06/19 01:30:10;;;;;;;8.60;4.90;;;19.90;99.90;;;;;;4249911;27;20065;-55
2023/06/19 01:32:15;;;;;;;;;;;19.80;99.90;;;;;;4253983;27;20125;-54
2023/06/19 01:34:20;;;;;;;7.25;5.07;;;19.90;99.90;;;;;;4262687;27;19923;-54
2023/06/19 01:36:23;;;;;;;;;;;19.80;99.90;;;;;;4266332;27;20557;-53
2023/06/19 01:38:28;;;;;;;6.95;4.30;;;19.80;99.90;;;;;;4236765;27;19970;-54
2023/06/19 01:40:31;;;;;;;;;;;19.80;99.90;;;;;;4267664;27;20085;-52
2023/06/19 01:42:35;;;;;;;6.80;4.85;;;19.80;99.90;;;;;;4256906;27;19920;-55
2023/06/19 01:44:38;;;;;;;6.90;4.25;;;19.80;99.90;;;;;;4262677;27;20085;-55
2023/06/19 01:46:40;;;;;;;7.63;4.40;;;19.80;99.90;;;;;;4265636;27;20043;-53
2023/06/19 01:48:42;;;;;;;9.98;4.38;;;19.80;99.90;;;;;;4255392;27;20158;-53
2023/06/19 01:50:46;;;;;;;7.65;5.10;;;19.80;99.90;;;;;;4267171;27;20047;-54
2023/06/19 01:52:48;;;;;;;15.63;5.35;;;19.80;99.90;;;;;;4258253;27;20039;-55
2023/06/19 01:54:50;;;;;;;6.43;4.38;;;19.80;99.90;;;;;;4249880;27;20100;-55
2023/06/19 01:56:53;;;;;;;9.02;4.45;;;19.80;99.90;;;;;;4252748;27;20092;-57
2023/06/19 01:58:55;;;;;;;8.80;5.45;;;19.90;99.90;;;;;;4261811;27;20114;-55
2023/06/19 02:00:57;;;;;;;9.27;4.60;;;19.80;99.90;;;;;;4249563;27;20039;-55
2023/06/19 02:02:59;;;;;;;8.82;5.50;;;19.80;99.90;;;;;;4255805;27;20451;-56
2023/06/19 02:05:02;;;;;;;9.73;5.03;;;19.80;99.90;;;;;;4254410;27;20051;-55
2023/06/19 02:07:05;;;;;;;12.95;5.70;;;19.80;99.90;;;;;;4250620;27;20134;-55
2023/06/19 02:09:08;;;;;;;10.35;5.95;;;19.80;99.90;;;;;;4260481;27;20480;-54
2023/06/19 02:11:10;;;;;;;8.35;5.72;;;19.90;99.90;;;;;;4249169;27;20557;-55
2023/06/19 02:13:13;;;;;;;9.82;6.68;;;19.80;99.90;;;;;;4234303;27;20418;-53
2023/06/19 02:15:15;;;;;;;9.30;5.95;;;19.80;99.90;;;;;;4259422;27;20050;-53
2023/06/19 02:17:17;;;;;;;10.50;5.50;;;19.80;99.90;;;;;;4266002;27;20146;-53
2023/06/19 02:19:20;;;;;;;9.57;6.65;;;19.80;99.90;;;;;;4261504;27;20118;-54
2023/06/19 02:21:22;;;;;;;16.13;5.95;;;19.80;99.90;;;;;;4249142;27;20043;-54
2023/06/19 02:23:24;;;;;;;14.07;5.05;;;19.80;99.90;;;;;;4252679;27;20113;-53
2023/06/19 02:25:26;;;;;;;13.32;6.03;;;19.70;99.90;;;;;;4256870;27;20043;-53
2023/06/19 02:27:28;;;;;;;10.10;5.60;;;19.70;99.90;;;;;;4248922;27;20039;-53
2023/06/19 02:29:33;;;;;;;6.15;4.93;;;19.80;99.90;;;;;;4260150;27;20408;-55
2023/06/19 02:31:36;;;;;;;6.63;5.03;;;19.70;99.90;;;;;;4248871;27;20055;-55
2023/06/19 02:33:38;;;;;;;13.20;6.00;;;19.70;99.90;;;;;;4252411;27;20126;-54
2023/06/19 02:35:41;;;;;;;11.50;5.63;;;19.80;99.90;;;;;;4256686;27;20043;-54
2023/06/19 02:37:46;;;;;;;12.18;5.75;;;19.80;99.90;;;;;;4266188;27;20046;-55
2023/06/19 02:39:48;;;;;;;;;;;19.80;99.90;;;;;;4254006;27;20039;-55
2023/06/19 02:41:50;;;;;;;11.00;5.13;;;19.80;99.90;;;;;;4264930;27;19919;-53
2023/06/19 02:43:52;;;;;;;8.23;5.63;;;19.70;99.90;;;;;;4262042;27;20091;-55
2023/06/19 02:45:56;;;;;;;9.25;5.50;;;19.70;99.90;;;;;;4256042;27;20049;-54
2023/06/19 02:47:59;;;;;;;9.55;5.88;;;19.70;99.90;;;;;;4266206;27;20176;-55
2023/06/19 02:50:03;;;;;;;12.20;5.50;;;19.80;99.90;;;;;;4243138;27;20039;-55
2023/06/19 02:52:07;;;;;;;11.35;5.45;;;19.80;99.90;;;;;;4266021;27;20476;-54
2023/06/19 02:54:09;;;;;;;8.40;5.72;;;19.70;99.90;;;;;;4262583;27;20049;-54
2023/06/19 02:56:11;;;;;;;8.65;6.00;;;19.70;99.90;;;;;;4254837;27;20077;-55
2023/06/19 02:58:13;;;;;;;8.15;5.25;;;19.70;99.90;;;;;;4265868;27;20484;-54
2023/06/19 03:00:17;;;;;;;11.63;6.40;;;19.70;99.90;;;;;;4255384;27;20047;-55
2023/06/19 03:02:20;;;;;;;10.10;5.72;;;19.70;99.90;;;;;;4263098;27;20074;-54
2023/06/19 03:04:23;;;;;;;12.38;6.65;;;19.70;99.90;;;;;;4262723;27;20136;-55
2023/06/19 03:06:29;;;;;;;9.80;6.57;;;19.70;99.90;;;;;;4254648;27;20461;-54
2023/06/19 03:08:31;;;;;;;10.23;5.93;;;19.60;99.90;;;;;;4265509;27;20050;-52
2023/06/19 03:10:33;;;;;;;9.02;6.32;;;19.60;99.90;;;;;;4255383;27;20043;-54
2023/06/19 03:12:35;;;;;;;9.88;6.07;;;19.60;99.90;;;;;;4244178;27;20093;-53
2023/06/19 03:14:37;;;;;;;10.45;6.68;;;19.60;99.90;;;;;;4262617;27;20046;-53
2023/06/19 03:16:39;;;;;;;12.60;6.40;;;19.60;99.90;;;;;;4253660;27;20396;-53
2023/06/19 03:18:44;;;;;;;10.40;6.57;;;19.60;99.90;;;;;;4247123;27;20043;-53
2023/06/19 03:20:47;;;;;;;15.13;6.97;;;19.50;99.90;;;;;;4255786;27;20166;-54
2023/06/19 03:22:54;;;;;;;12.32;6.15;;;19.50;99.90;;;;;;4262532;27;20046;-55
2023/06/19 03:24:56;;;;;;;12.75;7.35;;;19.50;99.90;;;;;;4262432;27;20190;-55
2023/06/19 03:26:58;;;;;;;12.88;6.57;;;19.40;99.90;;;;;;4249098;27;20468;-55
2023/06/19 03:29:00;;;;;;;11.13;5.95;;;19.40;99.90;;;;;;4247822;27;20074;-54
2023/06/19 03:31:02;;;;;;;12.05;5.85;;;19.40;99.90;;;;;;4251728;27;20062;-54
2023/06/19 03:33:04;;;;;;;10.15;6.90;;;19.40;99.90;;;;;;4260361;27;20420;-55
2023/06/19 03:35:10;;;;;;;12.77;6.65;;;19.40;99.90;;;;;;4262454;27;20043;-54
2023/06/19 03:37:12;;;;;;;16.05;6.28;;;19.50;99.90;;;;;;4253409;27;20046;-55
2023/06/19 03:39:14;;;;;;;10.18;5.93;;;19.40;99.90;;;;;;4264784;27;20074;-55
2023/06/19 03:41:16;;;;;;;11.85;6.82;;;19.40;99.90;;;;;;4260504;27;20043;-54
2023/06/19 03:43:18;;;;;;;11.02;6.28;;;19.40;99.90;;;;;;4253311;27;20165;-54
2023/06/19 03:45:20;;;;;;;14.05;7.15;;;19.40;99.90;;;;;;4248607;27;20039;-54
2023/06/19 03:47:22;;;;;;;8.15;5.57;;;19.30;99.90;;;;;;4259200;27;20460;-54
2023/06/19 03:49:24;;;;;;;12.20;5.38;;;19.40;99.90;;;;;;4247466;27;20054;-54
2023/06/19 03:51:28;;;;;;;11.65;6.43;;;19.40;99.90;;;;;;4252984;27;20046;-55
2023/06/19 03:53:31;;;;;;;16.73;7.18;;;19.40;99.90;;;;;;4245042;27;20126;-54
2023/06/19 03:55:33;;;;;;;13.85;6.78;;;19.40;99.90;;;;;;4245872;27;20043;-54
2023/06/19 03:57:35;;;;;;;11.02;7.45;;;19.50;99.90;;;;;;4234067;27;20113;-53
2023/06/19 03:59:37;;;;;;;12.80;6.20;;;19.50;99.90;;;;;;4264963;27;20077;-53
2023/06/19 04:01:40;;;;;;;15.00;6.88;;;19.40;99.90;;;;;;4260197;27;20074;-53
2023/06/19 04:03:42;;;;;;;13.27;7.50;;;19.50;99.90;;;;;;4255010;27;20142;-55
2023/06/19 04:05:44;;;;;;;12.25;7.28;;;19.40;99.90;;;;;;4247264;27;20057;-53
2023/06/19 04:07:48;;;;;;;9.57;6.32;;;19.40;99.90;;;;;;4259628;27;20043;-56
2023/06/19 04:09:50;;;;;;;6.88;5.50;;;19.50;99.90;;;;;;4247574;27;20050;-54
2023/06/19 04:11:52;;;;;;;9.05;6.05;;;19.40;99.90;;;;;;4250564;27;20067;-54
2023/06/19 04:13:54;;;;;;;11.27;6.88;;;19.50;99.90;;;;;;4255900;27;20134;-53
2023/06/19 04:15:56;;;;;;;11.45;6.25;;;19.50;99.90;;;;;;4247324;27;20051;-55
2023/06/19 04:18:00;;;;;;;10.35;6.88;;;19.60;99.90;;;;;;4258322;27;20065;-55
2023/06/19 04:20:10;;;;;;;16.48;6.82;;;19.60;99.90;;;;;;4248536;27;20047;-55
2023/06/19 04:22:21;;;;;;;16.40;6.95;;;19.60;99.90;;;;;;4251226;27;20039;-54
2023/06/19 04:24:25;;;;;;;12.27;7.32;;;19.70;99.90;;;;;;4254712;27;20503;-55
2023/06/19 04:26:27;;;;;;;9.00;6.03;;;19.60;99.90;;;;;;4247585;27;20047;-54
2023/06/19 04:28:29;;;;;;;14.68;6.55;;;19.60;99.90;;;;;;4258379;27;20411;-55
2023/06/19 04:30:31;;;;;;;14.73;7.10;;;19.60;99.90;;;;;;4247508;27;20395;-55
2023/06/19 04:32:34;;;;;;;10.60;6.45;;;19.70;99.90;;;;;;4250248;27;20096;-54
2023/06/19 04:34:37;;;;;;;25.08;6.43;;;19.70;99.90;;;;;;4255586;27;20095;-55
2023/06/19 04:36:39;;;;;;;14.57;6.45;;;19.70;99.90;;;;;;4246882;27;20051;-54
2023/06/19 04:38:41;;;;;;;12.00;7.20;;;19.70;99.90;;;;;;4258593;27;20075;-54
2023/06/19 04:40:44;;;;;;;12.77;7.57;;;19.70;99.90;;;;;;4248610;27;20043;-55
2023/06/19 04:42:46;;;;;;;14.35;6.43;;;19.70;99.90;;;;;;4248883;27;20472;-54
2023/06/19 04:44:49;;;;;;;16.55;6.72;;;19.70;99.90;;;;;;4256688;27;20047;-55
2023/06/19 04:47:00;;;;;;;15.02;5.90;;;19.70;99.90;;;;;;4247203;28;20074;-54
2023/06/19 04:49:03;;;;;;;10.52;6.35;;;19.80;99.90;;;;;;4258287;27;20509;-54
2023/06/19 04:51:05;;;;;;;14.82;6.30;;;19.80;99.90;;;;;;4248054;27;20058;-55
2023/06/19 04:53:08;;;;;;;11.35;7.70;;;19.80;99.90;;;;;;4251345;27;20365;-54
2023/06/19 04:55:10;;;;;;;16.55;7.43;;;19.80;99.90;;;;;;4257588;27;20139;-55
2023/06/19 04:57:13;;;;;;;14.38;6.72;;;19.80;99.90;;;;;;4229022;28;20092;-54
2023/06/19 04:59:17;;;;;;;11.00;7.28;;;19.80;99.90;;;;;;4239489;27;20051;-55
2023/06/19 05:01:25;;;;;;;11.98;6.85;;;19.80;99.90;;;;;;4248979;27;20055;-55
2023/06/19 05:03:27;;;;;;;9.10;6.03;;;19.90;99.90;;;;;;4248877;27;20053;-54
2023/06/19 05:05:29;;;;;;;9.00;6.10;;;19.90;99.90;;;;;;4256139;27;20110;-55
2023/06/19 05:07:31;;;;;;;20.42;7.68;;;19.90;99.90;;;;;;4246927;28;20077;-54
2023/06/19 05:09:34;;;;;;;12.60;7.45;;;20.00;99.90;;;;;;4256703;27;20043;-55
2023/06/19 05:11:36;;;;;;;12.43;6.20;;;20.00;99.90;;;;;;4249236;27;20047;-54
2023/06/19 05:13:39;;;;;;;13.25;6.68;;;20.00;99.90;;;;;;4248130;27;20043;-53
2023/06/19 05:15:41;;;;;;;11.02;6.78;;;20.10;99.90;;;;;;4257541;27;20043;-54
2023/06/19 05:17:46;;;;;;;8.40;6.57;;;20.20;99.90;;;;;;4247166;28;20062;-55
2023/06/19 05:19:49;;;;;;;9.88;7.03;;;20.20;99.90;;;;;;4255482;27;20074;-54
2023/06/19 05:21:51;;;;;;;12.85;7.30;;;20.20;99.90;;;;;;4250186;27;20126;-55
2023/06/19 05:23:53;;;;;;;14.23;8.00;;;20.30;99.90;;;;;;4246838;27;20067;-55
2023/06/19 05:25:55;;;;;;;13.65;6.65;;;20.20;99.90;;;;;;4258250;27;20055;-52
2023/06/19 05:27:57;;;;;;;8.07;6.57;;;20.30;99.90;;;;;;4246645;27;20121;-53
2023/06/19 05:30:01;;;;;;;13.02;7.43;;;20.30;99.90;;;;;;4252914;27;20445;-54
2023/06/19 05:32:04;;;;;;;13.43;7.35;;;20.30;99.90;;;;;;4251257;27;20125;-53
2023/06/19 05:34:06;;;;;;;9.23;6.80;;;20.30;99.90;;;;;;4247038;27;20085;-54
2023/06/19 05:36:08;;;;;;;11.60;6.90;;;20.30;99.90;;;;;;4258373;27;20039;-53
2023/06/19 05:38:10;;;;;;;11.93;7.32;;;20.30;99.90;;;;;;4247060;28;20440;-54
2023/06/19 05:40:12;;;;;;;12.27;7.22;;;20.40;99.90;;;;;;4253283;27;20053;-53
2023/06/19 05:42:14;;;;;;;13.93;6.90;;;20.40;99.90;;;;;;4252440;27;20051;-54
2023/06/19 05:44:16;;;;;;;11.70;7.82;;;20.40;99.90;;;;;;4246687;27;20490;-54
2023/06/19 05:46:20;;;;;;;12.25;7.90;;;20.50;99.90;;;;;;4261153;27;20042;-54
2023/06/19 05:48:22;;;;;;;14.98;8.68;;;20.60;99.90;;;;;;4249777;27;20043;-54
2023/06/19 05:50:24;;;;;;;14.00;8.57;;;20.60;99.90;;;;;;4255267;27;20066;-53
2023/06/19 05:52:27;;;;;;;11.45;7.40;;;20.80;99.90;;;;;;4256745;27;20127;-54
2023/06/19 05:54:29;;;;;;;16.15;8.32;;;20.90;99.90;;;;;;4230919;27;20458;-54
2023/06/19 05:56:32;;;;;;;12.75;8.80;;;20.90;99.90;;;;;;4264852;27;20070;-53
2023/06/19 05:58:35;;;;;;;16.23;9.27;;;21.00;99.90;;;;;;4249669;27;20047;-54
2023/06/19 06:00:37;;;;;;;21.15;8.82;;;21.00;99.90;;;;;;4254002;27;20908;-54
2023/06/19 06:02:40;;;;;;;15.10;7.82;;;21.10;99.90;;;;;;4257564;27;20035;-55
2023/06/19 06:04:43;;;;;;;12.43;7.35;;;21.20;99.90;;;;;;4248030;27;20043;-55
2023/06/19 06:06:45;;;;;;;18.70;8.30;;;21.20;99.90;;;;;;4262141;27;20058;-55
2023/06/19 06:08:47;;;;;;;9.68;7.30;;;21.20;99.90;;;;;;4249521;27;20051;-52
2023/06/19 06:10:49;;;;;;;16.55;7.72;;;21.20;99.90;;;;;;4252563;27;20088;-53
2023/06/19 06:12:51;;;;;;;14.27;7.70;;;21.20;99.90;;;;;;4259164;27;20039;-64
2023/06/19 06:14:53;;;;;;;12.52;6.78;;;21.30;99.90;;;;;;4249039;27;20064;-60
2023/06/19 06:16:55;;;;;;;13.52;7.55;;;21.30;99.90;;;;;;4260986;27;20045;-53
2023/06/19 06:18:59;;;;;;;7.65;5.30;;;21.30;99.90;;;;;;4250648;27;20492;-57
2023/06/19 06:21:01;;;;;;;7.78;5.60;;;21.30;99.90;;;;;;4250998;27;20035;-59
2023/06/19 06:23:04;;;;;;;12.35;5.57;;;21.50;99.90;;;;;;4259581;27;20035;-57
2023/06/19 06:25:07;;;;;;;10.70;6.22;;;21.50;99.90;;;;;;4247916;27;20282;-55
2023/06/19 06:27:13;;;;;;;9.27;6.47;;;21.50;99.90;;;;;;4250852;27;20054;-56
2023/06/19 06:29:15;;;;;;;9.50;5.45;;;21.60;99.90;;;;;;4264509;27;20056;-54
2023/06/19 06:31:17;;;;;;;12.25;6.80;;;21.60;99.90;;;;;;4264734;27;20038;-53
2023/06/19 06:33:19;;;;;;;15.20;6.97;;;21.60;99.90;;;;;;4254945;27;20168;-53
2023/06/19 06:35:23;;;;;;;12.75;7.65;;;21.60;99.90;;;;;;4265390;27;20043;-52
2023/06/19 06:37:25;;;;;;;13.70;7.30;;;21.70;99.90;;;;;;4256316;27;20050;-56
2023/06/19 06:39:27;;;;;;;14.85;6.97;;;21.70;99.90;;;;;;4263455;27;20476;-56
2023/06/19 06:41:29;;;;;;;12.15;6.53;;;21.70;99.90;;;;;;4244774;27;20146;-54
2023/06/19 06:43:31;;;;;;;9.13;6.57;;;21.80;99.90;;;;;;4264997;27;20095;-54
2023/06/19 06:45:34;;;;;;;14.70;6.50;;;21.90;99.90;;;;;;4246683;27;20561;-55
2023/06/19 06:47:41;;;;;;;15.35;6.50;;;21.90;99.90;;;;;;4243621;27;20084;-54
2023/06/19 06:49:43;;;;;;;12.35;6.15;;;22.00;99.90;;;;;;4266328;27;20043;-55
2023/06/19 06:51:47;;;;;;;10.75;6.50;;;22.10;99.90;;;;;;4264546;27;20074;-54
2023/06/19 06:53:50;;;;;;;9.70;6.68;;;22.10;99.90;;;;;;4253968;27;20118;-53
2023/06/19 06:55:52;;;;;;;17.75;7.40;;;22.20;99.90;;;;;;4263606;27;20043;-54
2023/06/19 06:57:54;;;;;;;15.98;8.27;;;22.10;99.90;;;;;;4257800;27;20397;-53
2023/06/19 06:59:56;;;;;;;16.13;7.85;;;22.20;99.90;;;;;;4261083;27;20553;-54
2023/06/19 07:01:59;;;;;;;14.13;7.25;;;22.20;99.90;;;;;;4263996;27;20070;-53
2023/06/19 07:04:01;;;;;;;10.57;7.95;;;22.20;99.90;;;;;;4253781;27;20075;-56
2023/06/19 07:06:03;;;;;;;26.80;7.60;;;22.20;99.90;;;;;;4265033;27;20047;-60
2023/06/19 07:08:06;;;;;;;12.77;7.03;;;22.10;99.90;;;;;;4263877;27;20049;-54
2023/06/19 07:10:09;;;;;;;13.68;7.90;;;22.10;99.90;;;;;;4254567;27;20043;-54
2023/06/19 07:12:11;;;;;;;15.60;7.30;;;22.20;99.90;;;;;;4249421;27;20088;-54
2023/06/19 07:14:13;;;;;;;11.25;7.40;;;22.20;99.90;;;;;;4260968;27;20046;-54
2023/06/19 07:16:16;;;;;;;12.80;8.10;;;22.30;99.90;;;;;;4265203;27;20092;-54
2023/06/19 07:18:18;;;;;;;11.77;7.20;;;22.30;99.90;;;;;;4259779;27;20039;-53
2023/06/19 07:20:20;;;;;;;13.85;6.82;;;22.50;99.90;;;;;;4257790;27;20466;-54
2023/06/19 07:22:22;;;;;;;10.35;6.72;;;22.60;99.90;;;;;;4265435;27;20173;-54
2023/06/19 07:24:26;;;;;;;12.70;6.70;;;22.60;99.90;;;;;;4252088;27;20314;-60
2023/06/19 07:26:28;;;;;;;15.68;8.45;;;22.60;99.90;;;;;;4247957;27;20130;-56
2023/06/19 07:28:30;;;;;;;15.93;8.45;;;22.70;99.90;;;;;;4250385;27;20066;-56
2023/06/19 07:30:32;;;;;;;14.55;8.30;;;22.80;99.90;;;;;;4256237;27;20373;-55
2023/06/19 07:32:35;;;;;;;14.82;8.13;;;22.80;99.90;;;;;;4229927;28;20489;-56
2023/06/19 07:34:37;;;;;;;10.38;7.05;;;22.70;99.90;;;;;;4259098;27;20066;-56
2023/06/19 07:36:39;;;;;;;13.30;7.90;;;22.70;99.90;;;;;;4248214;27;20051;-55
2023/06/19 07:38:42;;;;;;;12.25;7.75;;;22.80;99.90;;;;;;4250312;27;20043;-56
2023/06/19 07:40:45;;;;;;;14.65;8.52;;;22.80;99.90;;;;;;4257998;27;20126;-55
2023/06/19 07:42:48;;;;;;;19.80;8.15;;;22.80;99.90;;;;;;4247752;27;20098;-56
2023/06/19 07:44:50;;;;;;;13.93;8.02;;;22.80;99.90;;;;;;4257416;27;20042;-56
2023/06/19 07:46:52;;;;;;;17.38;7.72;;;22.80;99.90;;;;;;4249312;27;20043;-55
2023/06/19 07:48:54;;;;;;;10.77;7.43;;;23.00;99.90;;;;;;4249289;27;20058;-55
2023/06/19 07:50:56;;;;;;;15.98;8.30;;;22.90;99.90;;;;;;4259105;27;20143;-56
2023/06/19 07:52:58;;;;;;;16.35;8.57;;;22.90;99.90;;;;;;4229711;28;20059;-55
2023/06/19 07:55:00;;;;;;;18.33;8.82;;;23.00;99.70;;;;;;4256123;27;20043;-56
2023/06/19 07:57:04;;;;;;;17.73;8.68;;;23.30;99.60;;;;;;4250837;27;20043;-55
2023/06/19 07:59:07;;;;;;;18.77;8.45;;;23.30;99.50;;;;;;4248534;27;20171;-56
2023/06/19 08:01:10;;;;;;;18.88;8.68;;;23.40;99.70;;;;;;4259200;27;20043;-57
2023/06/19 08:03:12;;;;;;;10.18;7.18;;;23.60;99.80;;;;;;4247881;27;20060;-56
2023/06/19 08:05:15;;;;;;;12.75;7.28;;;23.90;99.40;;;;;;4254948;27;20047;-56
2023/06/19 08:07:17;;;;;;;16.02;8.07;;;24.00;99.50;;;;;;4250965;27;20043;-55
2023/06/19 08:09:19;;;;;;;12.20;7.80;;;24.20;99.80;;;;;;4248443;27;20043;-56
2023/06/19 08:11:21;;;;;;;14.07;7.80;;;24.40;99.60;;;;;;4258894;27;20499;-55
2023/06/19 08:13:24;;;;;;;14.30;8.85;;;24.50;98.80;;;;;;4247426;27;20049;-55
2023/06/19 08:15:27;;;;;;;14.57;7.38;;;24.40;97.60;;;;;;4232344;27;20047;-56
2023/06/19 08:17:29;;;;;;;15.45;9.25;;;24.50;98.20;;;;;;4259353;27;20043;-56
2023/06/19 08:19:31;;;;;;;14.70;7.75;;;24.60;98.40;;;;;;4263601;27;20488;-55
2023/06/19 08:21:33;;;;;;;14.23;8.45;;;24.50;98.10;;;;;;4259009;27;20494;-53
2023/06/19 08:23:35;;;;;;;15.43;9.20;;;24.50;97.90;;;;;;4247309;27;20050;-55
2023/06/19 08:25:37;;;;;;;14.23;8.75;;;24.60;97.90;;;;;;4233935;27;20475;-56
2023/06/19 08:27:39;;;;;;;15.85;8.93;;;24.40;97.60;;;;;;4262565;27;20470;-56
2023/06/19 08:29:43;;;;;;;12.75;7.90;;;24.70;98.00;;;;;;4263182;27;20042;-56
2023/06/19 08:31:45;;;;;;;14.10;9.10;;;24.70;98.00;;;;;;4252237;27;20069;-54
2023/06/19 08:33:53;;;;;;;14.98;7.53;;;24.70;97.30;;;;;;4264246;27;20053;-54
2023/06/19 08:35:55;;;;;;;16.52;9.00;;;24.60;97.80;;;;;;4257494;27;20459;-54
2023/06/19 08:37:57;;;;;;;10.27;7.65;;;24.50;97.50;;;;;;4257167;27;20248;-56
2023/06/19 08:39:59;;;;;;;15.75;7.72;;;24.30;97.60;;;;;;4264216;27;20115;-56
2023/06/19 08:42:02;;;;;;;14.32;7.88;;;24.30;97.80;;;;;;4251287;27;20055;-56
2023/06/19 08:44:04;;;;;;;12.93;8.40;;;24.30;98.10;;;;;;4264091;27;20410;-56
2023/06/19 08:46:10;;;;;;;13.32;9.45;;;24.20;98.10;;;;;;4259625;27;20055;-53
2023/06/19 08:48:14;;;;;;;11.88;7.75;;;24.30;98.40;;;;;;4239228;28;20122;-57
2023/06/19 08:50:16;;;;;;;14.15;8.35;;;24.10;97.10;;;;;;4246905;27;20043;-53
2023/06/19 08:52:18;;;;;;;19.70;8.25;;;24.20;97.40;;;;;;4260205;27;20157;-55
2023/06/19 08:54:20;;;;;;;14.90;8.43;;;24.20;97.50;;;;;;4247604;28;20047;-55
2023/06/19 08:56:22;;;;;;;13.20;7.50;;;24.30;97.40;;;;;;4249878;27;20042;-54
2023/06/19 08:58:26;;;;;;;12.77;7.45;;;24.30;97.60;;;;;;4256014;27;20053;-56
2023/06/19 09:00:29;;;;;;;12.15;7.78;;;24.40;97.70;;;;;;4247161;28;20074;-54
2023/06/19 09:02:45;;;;;;;14.15;7.82;;;24.60;97.50;;;;;;4259185;27;20373;-56
2023/06/19 09:05:13;;;;;;;10.25;6.65;;;24.70;96.80;;;;;;4245972;28;20155;-55
2023/06/19 09:07:15;;;;;;;14.95;7.50;;;24.60;96.90;;;;;;4254963;27;20046;-55
2023/06/19 09:09:20;;;;;;;9.27;7.57;;;24.40;96.40;;;;;;4251371;27;20043;-55
2023/06/19 09:11:22;;;;;;;10.38;7.25;;;24.50;97.20;;;;;;4247803;27;20480;-57
2023/06/19 09:13:25;;;;;;;10.20;7.13;;;24.60;97.10;;;;;;4258224;27;20066;-56
2023/06/19 09:15:29;;;;;;;12.32;7.82;;;24.60;96.40;;;;;;4245960;28;20043;-55
2023/06/19 09:17:31;;;;;;;11.75;7.40;;;24.70;96.40;;;;;;4254264;27;20050;-58
2023/06/19 09:19:35;;;;;;;11.35;6.28;;;24.70;96.20;;;;;;4253355;27;20476;-58
2023/06/19 09:21:38;;;;;;;13.23;8.68;;;24.60;97.10;;;;;;4251273;27;20135;-55
2023/06/19 09:23:40;;;;;;;13.00;7.30;;;24.60;97.10;;;;;;4261924;27;20071;-55
2023/06/19 09:25:47;;;;;;;13.35;7.00;;;24.50;96.80;;;;;;4248949;27;20039;-55
2023/06/19 09:27:49;;;;;;;9.73;6.32;;;24.70;96.60;;;;;;4255165;27;20496;-55
2023/06/19 09:29:51;;;;;;;10.70;6.32;;;24.80;96.80;;;;;;4255537;27;20047;-54
2023/06/19 09:31:56;;;;;;;13.90;6.53;;;25.00;96.00;;;;;;4251126;27;20043;-55
2023/06/19 09:33:58;;;;;;;;;;;25.20;96.00;;;;;;4262145;27;20074;-57
2023/06/19 09:36:02;;;;;;;8.45;5.95;;;25.00;95.50;;;;;;4230565;28;19920;-58
2023/06/19 09:38:05;;;;;;;9.68;6.32;;;24.90;96.10;;;;;;4255593;27;20039;-54
2023/06/19 09:40:11;;;;;;;10.52;6.53;;;24.90;96.30;;;;;;4256095;27;20054;-55
2023/06/19 09:42:14;;;;;;;11.82;6.35;;;24.90;96.30;;;;;;4250425;27;20081;-54
2023/06/19 09:44:22;;;;;;;9.70;6.47;;;24.80;96.30;;;;;;4261260;27;20039;-56
2023/06/19 09:46:26;;;;;;;9.85;6.20;;;24.80;95.30;;;;;;4248462;27;20122;-57
2023/06/19 09:48:30;;;;;;;;;;;24.90;95.30;;;;;;4256959;27;20047;-57
2023/06/19 09:50:34;;;;;;;7.47;5.72;;;24.90;95.50;;;;;;4254796;27;19919;-57
2023/06/19 09:52:39;;;;;;;8.63;5.43;;;24.90;95.30;;;;;;4250957;27;20511;-57
2023/06/19 09:54:43;;;;;;;8.65;5.65;;;25.00;95.30;;;;;;4260434;27;20097;-57
2023/06/19 09:56:50;;;;;;;10.75;6.10;;;25.10;93.80;;;;;;4249490;27;20039;-57
2023/06/19 09:58:55;;;;;;;6.75;5.00;;;25.30;94.30;;;;;;4256467;27;20526;-57
2023/06/19 10:00:59;;;;;;;10.05;5.43;;;25.30;94.90;;;;;;4254608;27;20480;-57
2023/06/19 10:03:04;;;;;;;8.88;4.70;;;25.30;94.10;;;;;;4250772;27;20043;-57
2023/06/19 10:05:11;;;;;;;;;;;25.30;94.20;;;;;;4260464;27;20668;-57
2023/06/19 10:07:17;;;;;;;9.63;5.63;;;25.10;94.10;;;;;;4249397;27;19923;-58
2023/06/19 10:09:22;;;;;;;8.15;4.72;;;25.00;95.40;;;;;;4257099;27;20449;-57
2023/06/19 10:11:27;;;;;;;11.25;4.82;;;25.20;95.30;;;;;;4253031;27;20055;-57
2023/06/19 10:13:33;;;;;;;;;;;25.20;95.00;;;;;;4250864;27;20046;-57
2023/06/19 10:15:41;;;;;;;6.60;4.80;;;25.20;93.70;;;;;;4259662;27;19933;-58
2023/06/19 10:17:48;;;;;;;9.55;5.53;;;25.20;93.60;;;;;;4249061;27;20053;-57
2023/06/19 10:19:52;;;;;;;7.22;4.88;;;25.20;93.90;;;;;;4258590;27;20042;-57
2023/06/19 10:21:55;;;;;;;12.07;5.15;;;25.30;93.70;;;;;;4251869;27;20058;-57
2023/06/19 10:23:58;;;;;;;7.45;4.50;;;25.40;94.40;;;;;;4249952;27;20035;-56
2023/06/19 10:26:02;;;;;;;6.07;4.20;;;25.30;94.10;;;;;;4259572;27;20039;-56
2023/06/19 10:28:16;;;;;;;5.60;4.30;;;25.30;94.40;;;;;;4248912;27;20047;-57
2023/06/19 10:30:19;;;;;;;5.97;3.97;;;25.30;93.90;;;;;;4257828;27;20057;-57
2023/06/19 10:32:21;;;;;;;4.85;3.65;;;25.40;94.40;;;;;;4250433;27;20071;-57
2023/06/19 10:34:33;;;;;;;5.55;3.67;;;25.40;93.90;;;;;;4250155;27;20477;-57
2023/06/19 10:36:35;;;;;;;7.32;3.90;;;25.60;93.10;;;;;;4257855;27;20477;-57
2023/06/19 10:38:37;;;;;;;5.43;3.95;;;25.60;93.10;;;;;;4230241;28;20104;-57